RYR9437 LERS-EDLV
Flight info
| Callsign | RYR9437 |
|---|---|
| Flight time | N/A |
| Altitude | 38000 |
| Route | NATPI DCT NASEP DCT ENUPA DCT RLP DCT ROUSY DCT MILGI DCT LMA LMA1W |
| Aircraft | B738/M-SDE3FGILRWY/SB1 |
Departure
| Time | 2026-04-25 17:46 |
|---|---|
| Airport | Reus Airport (LERS) |
Arrival
| Time | N/A |
|---|---|
| Airport | Weeze (Niederrhein) Airport (EDLV) |
| Time | Latitude | Longitude | Altitude | Speed | Heading |
|---|---|---|---|---|---|
| 2026-04-25 17:28 | 41.14667 | 1.15559 | 241 ft | 0 kts | 339° |
| 2026-04-25 17:38 | 41.14648 | 1.15569 | 241 ft | 4 kts | 339° |
| 2026-04-25 17:39 | 41.14625 | 1.15581 | 241 ft | 2 kts | 339° |
| 2026-04-25 17:39 | 41.14603 | 1.15588 | 241 ft | 4 kts | 13° |
| 2026-04-25 17:39 | 41.14583 | 1.15570 | 241 ft | 4 kts | 58° |
| 2026-04-25 17:39 | 41.14576 | 1.15551 | 241 ft | 0 kts | 69° |
| 2026-04-25 17:41 | 41.14576 | 1.15552 | 241 ft | 1 kts | 69° |
| 2026-04-25 17:41 | 41.14599 | 1.15629 | 241 ft | 14 kts | 69° |
| 2026-04-25 17:42 | 41.14633 | 1.15751 | 241 ft | 14 kts | 68° |
| 2026-04-25 17:42 | 41.14669 | 1.15873 | 241 ft | 15 kts | 69° |
| 2026-04-25 17:42 | 41.14713 | 1.16022 | 241 ft | 20 kts | 69° |
| 2026-04-25 17:42 | 41.14768 | 1.16212 | 241 ft | 23 kts | 69° |
| 2026-04-25 17:43 | 41.14828 | 1.16413 | 241 ft | 23 kts | 69° |
| 2026-04-25 17:43 | 41.14885 | 1.16606 | 241 ft | 22 kts | 69° |
| 2026-04-25 17:43 | 41.14940 | 1.16794 | 241 ft | 22 kts | 69° |
| 2026-04-25 17:43 | 41.14993 | 1.16978 | 241 ft | 21 kts | 69° |
| 2026-04-25 17:44 | 41.15046 | 1.17156 | 241 ft | 21 kts | 69° |
| 2026-04-25 17:44 | 41.15106 | 1.17362 | 240 ft | 27 kts | 69° |
| 2026-04-25 17:44 | 41.15172 | 1.17588 | 240 ft | 25 kts | 69° |
| 2026-04-25 17:44 | 41.15233 | 1.17798 | 240 ft | 24 kts | 69° |
| 2026-04-25 17:45 | 41.15291 | 1.17996 | 240 ft | 23 kts | 69° |
| 2026-04-25 17:45 | 41.15310 | 1.18061 | 240 ft | 22 kts | 69° |
| 2026-04-25 17:45 | 41.15247 | 1.18286 | 240 ft | 18 kts | 157° |
| 2026-04-25 17:45 | 41.15173 | 1.18209 | 240 ft | 21 kts | 248° |
| 2026-04-25 17:46 | 41.15013 | 1.17662 | 241 ft | 105 kts | 249° |
| 2026-04-25 17:46 | 41.14653 | 1.16468 | 377 ft | 161 kts | 246° |
| 2026-04-25 17:46 | 41.14210 | 1.15031 | 1029 ft | 184 kts | 244° |
| 2026-04-25 17:46 | 41.13504 | 1.13497 | 1795 ft | 198 kts | 232° |
| 2026-04-25 17:47 | 41.12722 | 1.12007 | 2863 ft | 199 kts | 236° |
| 2026-04-25 17:47 | 41.11961 | 1.10329 | 3307 ft | 228 kts | 238° |
| 2026-04-25 17:47 | 41.11408 | 1.09075 | 3466 ft | 247 kts | 238° |
| 2026-04-25 17:47 | 41.10170 | 1.06264 | 4128 ft | 274 kts | 238° |
| 2026-04-25 17:48 | 41.08553 | 1.02614 | 5796 ft | 278 kts | 239° |
| 2026-04-25 17:48 | 41.07557 | 1.00379 | 6737 ft | 283 kts | 239° |
| 2026-04-25 17:48 | 41.06559 | 0.98149 | 7651 ft | 286 kts | 239° |
| 2026-04-25 17:49 | 41.05530 | 0.95857 | 8545 ft | 291 kts | 239° |
| 2026-04-25 17:49 | 41.04639 | 0.93431 | 9450 ft | 295 kts | 258° |
| 2026-04-25 17:49 | 41.04705 | 0.90741 | 10346 ft | 295 kts | 289° |
| 2026-04-25 17:49 | 41.05713 | 0.88322 | 10790 ft | 313 kts | 313° |
| 2026-04-25 17:50 | 41.07478 | 0.86506 | 11112 ft | 330 kts | 335° |
| 2026-04-25 17:50 | 41.09651 | 0.85626 | 11854 ft | 332 kts | 354° |
| 2026-04-25 17:50 | 41.11954 | 0.85467 | 12742 ft | 334 kts | 4° |
| 2026-04-25 17:50 | 41.14280 | 0.85855 | 13517 ft | 339 kts | 10° |
| 2026-04-25 17:51 | 41.16626 | 0.86398 | 14333 ft | 342 kts | 11° |
| 2026-04-25 17:51 | 41.18991 | 0.86983 | 15019 ft | 349 kts | 11° |
| 2026-04-25 17:51 | 41.21364 | 0.87574 | 15752 ft | 352 kts | 11° |
| 2026-04-25 17:51 | 41.23800 | 0.88173 | 16433 ft | 359 kts | 11° |
| 2026-04-25 17:52 | 41.26281 | 0.88773 | 17122 ft | 364 kts | 11° |
| 2026-04-25 17:52 | 41.27937 | 0.89169 | 17624 ft | 366 kts | 11° |
| 2026-04-25 17:52 | 41.31329 | 0.89973 | 18521 ft | 374 kts | 11° |
| 2026-04-25 17:52 | 41.33906 | 0.90578 | 19147 ft | 377 kts | 11° |
| 2026-04-25 17:53 | 41.36503 | 0.91186 | 19803 ft | 380 kts | 11° |
| 2026-04-25 17:53 | 41.39085 | 0.91790 | 20438 ft | 383 kts | 10° |
| 2026-04-25 17:53 | 41.41726 | 0.92407 | 21066 ft | 386 kts | 10° |
| 2026-04-25 17:53 | 41.44383 | 0.93028 | 21667 ft | 390 kts | 10° |
| 2026-04-25 17:54 | 41.47074 | 0.93658 | 22273 ft | 393 kts | 10° |
| 2026-04-25 17:54 | 41.49788 | 0.94293 | 22868 ft | 397 kts | 10° |
| 2026-04-25 17:54 | 41.52491 | 0.94927 | 23435 ft | 400 kts | 10° |
| 2026-04-25 17:54 | 41.55249 | 0.95574 | 23948 ft | 404 kts | 10° |
| 2026-04-25 17:55 | 41.58035 | 0.96228 | 24427 ft | 407 kts | 9° |
| 2026-04-25 17:55 | 41.60837 | 0.96886 | 24904 ft | 410 kts | 9° |
| 2026-04-25 17:55 | 41.63658 | 0.97550 | 25387 ft | 412 kts | 9° |
| 2026-04-25 17:55 | 41.66497 | 0.98219 | 25856 ft | 415 kts | 9° |
| 2026-04-25 17:56 | 41.69350 | 0.98891 | 26305 ft | 418 kts | 9° |
| 2026-04-25 17:56 | 41.72231 | 0.99570 | 26760 ft | 421 kts | 9° |
| 2026-04-25 17:56 | 41.75088 | 1.00245 | 27194 ft | 424 kts | 9° |
| 2026-04-25 17:56 | 41.78003 | 1.00934 | 27635 ft | 426 kts | 9° |
| 2026-04-25 17:57 | 41.80934 | 1.01627 | 28057 ft | 429 kts | 9° |
| 2026-04-25 17:57 | 41.83887 | 1.02327 | 28474 ft | 432 kts | 9° |
| 2026-04-25 17:57 | 41.86863 | 1.03032 | 28895 ft | 434 kts | 9° |
| 2026-04-25 17:57 | 41.88835 | 1.03500 | 29160 ft | 436 kts | 9° |
| 2026-04-25 17:58 | 41.92845 | 1.04452 | 29678 ft | 439 kts | 9° |
| 2026-04-25 17:58 | 41.95868 | 1.05171 | 30061 ft | 442 kts | 9° |
| 2026-04-25 17:58 | 41.98904 | 1.05893 | 30393 ft | 444 kts | 9° |
| 2026-04-25 17:58 | 42.01916 | 1.06610 | 30723 ft | 445 kts | 9° |
| 2026-04-25 17:59 | 42.04976 | 1.07340 | 31061 ft | 447 kts | 9° |
| 2026-04-25 17:59 | 42.08048 | 1.08073 | 31394 ft | 448 kts | 9° |
| 2026-04-25 17:59 | 42.11124 | 1.08808 | 31847 ft | 446 kts | 9° |
| 2026-04-25 17:59 | 42.14174 | 1.09538 | 32340 ft | 443 kts | 9° |
| 2026-04-25 18:00 | 42.17176 | 1.10257 | 32780 ft | 442 kts | 9° |
| 2026-04-25 18:00 | 42.20200 | 1.10981 | 33169 ft | 442 kts | 9° |
| 2026-04-25 18:00 | 42.23234 | 1.11709 | 33554 ft | 441 kts | 9° |
| 2026-04-25 18:00 | 42.26263 | 1.12436 | 33969 ft | 440 kts | 9° |
| 2026-04-25 18:01 | 42.29285 | 1.13162 | 34333 ft | 440 kts | 9° |
| 2026-04-25 18:01 | 42.32299 | 1.13887 | 34616 ft | 440 kts | 9° |
| 2026-04-25 18:01 | 42.35289 | 1.14606 | 34873 ft | 441 kts | 9° |
| 2026-04-25 18:01 | 42.38326 | 1.15338 | 35158 ft | 442 kts | 9° |
| 2026-04-25 18:02 | 42.41356 | 1.16069 | 35475 ft | 442 kts | 9° |
| 2026-04-25 18:02 | 42.44383 | 1.16800 | 35782 ft | 442 kts | 9° |
| 2026-04-25 18:02 | 42.47408 | 1.17531 | 36069 ft | 441 kts | 9° |
| 2026-04-25 18:02 | 42.50442 | 1.18265 | 36352 ft | 441 kts | 9° |
| 2026-04-25 18:03 | 42.53431 | 1.18989 | 36612 ft | 442 kts | 9° |
| 2026-04-25 18:03 | 42.56457 | 1.19723 | 36882 ft | 442 kts | 9° |
| 2026-04-25 18:03 | 42.59492 | 1.20459 | 37137 ft | 442 kts | 9° |
| 2026-04-25 18:03 | 42.62526 | 1.21196 | 37392 ft | 442 kts | 9° |
| 2026-04-25 18:04 | 42.65555 | 1.21932 | 37677 ft | 441 kts | 9° |
| 2026-04-25 18:04 | 42.68586 | 1.22670 | 37956 ft | 441 kts | 8° |
| 2026-04-25 18:04 | 42.71604 | 1.23423 | 38164 ft | 441 kts | 11° |
| 2026-04-25 18:05 | 42.77408 | 1.26101 | 38186 ft | 445 kts | 20° |
| 2026-04-25 18:05 | 42.83140 | 1.29286 | 38174 ft | 443 kts | 21° |
| 2026-04-25 18:06 | 42.88850 | 1.32455 | 38185 ft | 441 kts | 20° |
| 2026-04-25 18:06 | 42.94519 | 1.35556 | 38178 ft | 441 kts | 20° |
| 2026-04-25 18:07 | 43.00215 | 1.38654 | 38175 ft | 440 kts | 20° |
| 2026-04-25 18:07 | 43.05905 | 1.41749 | 38166 ft | 440 kts | 20° |
| 2026-04-25 18:08 | 43.11612 | 1.44860 | 38167 ft | 441 kts | 20° |
| 2026-04-25 18:08 | 43.17284 | 1.47960 | 38165 ft | 442 kts | 20° |
| 2026-04-25 18:09 | 43.23011 | 1.51096 | 38156 ft | 443 kts | 20° |
| 2026-04-25 18:09 | 43.28757 | 1.54250 | 38158 ft | 445 kts | 19° |
| 2026-04-25 18:10 | 43.34480 | 1.57397 | 38159 ft | 446 kts | 19° |
| 2026-04-25 18:10 | 43.40255 | 1.60579 | 38155 ft | 447 kts | 19° |
| 2026-04-25 18:11 | 43.46049 | 1.63778 | 38155 ft | 448 kts | 19° |
| 2026-04-25 18:11 | 43.51815 | 1.66969 | 38154 ft | 449 kts | 19° |
| 2026-04-25 18:12 | 43.57611 | 1.70184 | 38159 ft | 449 kts | 19° |
| 2026-04-25 18:12 | 43.63423 | 1.73412 | 38157 ft | 449 kts | 19° |
| 2026-04-25 18:13 | 43.69224 | 1.76643 | 38152 ft | 449 kts | 19° |
| 2026-04-25 18:13 | 43.75024 | 1.79879 | 38153 ft | 448 kts | 19° |
| 2026-04-25 18:14 | 43.83667 | 1.84714 | 38146 ft | 448 kts | 19° |
| 2026-04-25 18:14 | 43.89443 | 1.87954 | 38146 ft | 447 kts | 19° |
| 2026-04-25 18:15 | 43.95219 | 1.91201 | 38146 ft | 447 kts | 19° |
| 2026-04-25 18:15 | 44.00956 | 1.94432 | 38141 ft | 446 kts | 19° |
| 2026-04-25 18:16 | 44.06730 | 1.97691 | 38143 ft | 446 kts | 19° |
| 2026-04-25 18:17 | 44.15340 | 2.02563 | 38139 ft | 447 kts | 19° |
| 2026-04-25 18:17 | 44.21111 | 2.05838 | 38137 ft | 447 kts | 19° |
| 2026-04-25 18:18 | 44.26837 | 2.09093 | 38142 ft | 447 kts | 19° |
| 2026-04-25 18:18 | 44.32605 | 2.12380 | 38140 ft | 448 kts | 19° |
| 2026-04-25 18:19 | 44.38381 | 2.15679 | 38147 ft | 448 kts | 19° |
| 2026-04-25 18:19 | 44.44122 | 2.18966 | 38148 ft | 448 kts | 19° |
| 2026-04-25 18:20 | 44.49893 | 2.22275 | 38145 ft | 448 kts | 19° |
| 2026-04-25 18:20 | 44.55678 | 2.25542 | 38153 ft | 447 kts | 18° |
| 2026-04-25 18:21 | 44.61444 | 2.28702 | 38151 ft | 447 kts | 18° |
| 2026-04-25 18:21 | 44.67248 | 2.31884 | 38131 ft | 447 kts | 18° |
| 2026-04-25 18:22 | 44.73048 | 2.35085 | 38126 ft | 447 kts | 18° |
| 2026-04-25 18:22 | 44.78848 | 2.38300 | 38134 ft | 447 kts | 18° |
| 2026-04-25 18:23 | 44.84636 | 2.41517 | 38130 ft | 447 kts | 18° |
| 2026-04-25 18:23 | 44.90392 | 2.44724 | 38126 ft | 446 kts | 18° |
| 2026-04-25 18:24 | 44.96141 | 2.47933 | 38136 ft | 446 kts | 18° |
| 2026-04-25 18:24 | 45.01923 | 2.51168 | 38140 ft | 446 kts | 18° |
| 2026-04-25 18:25 | 45.07698 | 2.54404 | 38138 ft | 446 kts | 18° |
| 2026-04-25 18:25 | 45.13439 | 2.57630 | 38136 ft | 446 kts | 19° |
| 2026-04-25 18:26 | 45.19208 | 2.60878 | 38139 ft | 446 kts | 19° |
| 2026-04-25 18:26 | 45.24983 | 2.64137 | 38134 ft | 445 kts | 19° |
| 2026-04-25 18:27 | 45.30745 | 2.67397 | 38143 ft | 445 kts | 19° |
| 2026-04-25 18:27 | 45.36464 | 2.70637 | 38145 ft | 444 kts | 19° |
| 2026-04-25 18:28 | 45.42225 | 2.73909 | 38136 ft | 445 kts | 19° |
| 2026-04-25 18:28 | 45.47984 | 2.77188 | 38135 ft | 445 kts | 19° |
| 2026-04-25 18:29 | 45.56584 | 2.82097 | 38132 ft | 445 kts | 19° |
| 2026-04-25 18:30 | 45.68070 | 2.88679 | 38112 ft | 445 kts | 19° |
| 2026-04-25 18:30 | 45.73800 | 2.91973 | 38111 ft | 445 kts | 19° |
| 2026-04-25 18:31 | 45.79558 | 2.95291 | 38104 ft | 445 kts | 19° |
| 2026-04-25 18:31 | 45.85309 | 2.98612 | 38098 ft | 445 kts | 19° |
| 2026-04-25 18:32 | 45.91011 | 3.01913 | 38110 ft | 444 kts | 19° |
| 2026-04-25 18:32 | 45.96752 | 3.05244 | 38106 ft | 443 kts | 19° |
| 2026-04-25 18:33 | 46.02441 | 3.08551 | 38112 ft | 443 kts | 19° |
| 2026-04-25 18:33 | 46.08165 | 3.11886 | 38107 ft | 443 kts | 19° |
| 2026-04-25 18:34 | 46.13894 | 3.15232 | 38109 ft | 443 kts | 20° |
| 2026-04-25 18:34 | 46.19577 | 3.18558 | 38110 ft | 443 kts | 20° |
| 2026-04-25 18:35 | 46.25266 | 3.21895 | 38103 ft | 443 kts | 20° |
| 2026-04-25 18:35 | 46.30985 | 3.25258 | 38109 ft | 443 kts | 20° |
| 2026-04-25 18:36 | 46.36701 | 3.28627 | 38108 ft | 443 kts | 20° |
| 2026-04-25 18:36 | 46.42380 | 3.31981 | 38109 ft | 443 kts | 20° |
| 2026-04-25 18:37 | 46.48085 | 3.35358 | 38107 ft | 443 kts | 20° |
| 2026-04-25 18:37 | 46.53801 | 3.38750 | 38109 ft | 443 kts | 20° |
| 2026-04-25 18:38 | 46.58549 | 3.41573 | 38114 ft | 443 kts | 20° |
| 2026-04-25 18:38 | 46.64185 | 3.45232 | 38106 ft | 445 kts | 29° |
| 2026-04-25 18:39 | 46.69013 | 3.50823 | 38120 ft | 448 kts | 42° |
| 2026-04-25 18:39 | 46.73503 | 3.57152 | 38110 ft | 448 kts | 43° |
| 2026-04-25 18:40 | 46.77985 | 3.63496 | 38115 ft | 449 kts | 43° |
| 2026-04-25 18:40 | 46.82502 | 3.69823 | 38121 ft | 449 kts | 42° |
| 2026-04-25 18:41 | 46.86995 | 3.76091 | 38117 ft | 449 kts | 42° |
| 2026-04-25 18:41 | 46.91523 | 3.82413 | 38117 ft | 450 kts | 42° |
| 2026-04-25 18:42 | 46.95289 | 3.87684 | 38125 ft | 450 kts | 42° |
| 2026-04-25 18:42 | 47.00550 | 3.95070 | 38125 ft | 450 kts | 42° |
| 2026-04-25 18:43 | 47.05074 | 4.01437 | 38135 ft | 450 kts | 42° |
| 2026-04-25 18:43 | 47.09564 | 4.07774 | 38130 ft | 449 kts | 42° |
| 2026-04-25 18:44 | 47.14071 | 4.14150 | 38128 ft | 449 kts | 42° |
| 2026-04-25 18:44 | 47.18569 | 4.20528 | 38134 ft | 449 kts | 42° |
| 2026-04-25 18:45 | 47.23065 | 4.26919 | 38129 ft | 449 kts | 42° |
| 2026-04-25 18:45 | 47.27520 | 4.33269 | 38136 ft | 448 kts | 42° |
| 2026-04-25 18:46 | 47.32007 | 4.39679 | 38142 ft | 448 kts | 42° |
| 2026-04-25 18:46 | 47.36475 | 4.46078 | 38135 ft | 448 kts | 42° |
| 2026-04-25 18:47 | 47.40920 | 4.52461 | 38140 ft | 447 kts | 42° |
| 2026-04-25 18:47 | 47.45390 | 4.58895 | 38137 ft | 447 kts | 42° |
| 2026-04-25 18:48 | 47.49843 | 4.65320 | 38141 ft | 447 kts | 42° |
| 2026-04-25 18:48 | 47.54297 | 4.71765 | 38138 ft | 447 kts | 42° |
| 2026-04-25 18:49 | 47.58720 | 4.78179 | 38144 ft | 447 kts | 43° |
| 2026-04-25 18:49 | 47.63170 | 4.84649 | 38142 ft | 448 kts | 43° |
| 2026-04-25 18:50 | 47.67596 | 4.91101 | 38138 ft | 448 kts | 43° |
| 2026-04-25 18:50 | 47.72041 | 4.97595 | 38140 ft | 448 kts | 43° |
| 2026-04-25 18:51 | 47.75729 | 5.02998 | 38146 ft | 448 kts | 43° |
| 2026-04-25 18:51 | 47.80922 | 5.10625 | 38143 ft | 448 kts | 43° |
| 2026-04-25 18:52 | 47.85330 | 5.17115 | 38145 ft | 448 kts | 43° |
| 2026-04-25 18:52 | 47.89897 | 5.23402 | 38131 ft | 445 kts | 33° |
| 2026-04-25 18:53 | 47.95330 | 5.27629 | 38152 ft | 438 kts | 17° |
| 2026-04-25 18:53 | 48.01086 | 5.30653 | 38144 ft | 438 kts | 16° |
| 2026-04-25 18:54 | 48.09704 | 5.35154 | 38144 ft | 438 kts | 17° |
| 2026-04-25 18:55 | 48.15463 | 5.38234 | 38156 ft | 438 kts | 17° |
| 2026-04-25 18:55 | 48.21205 | 5.41332 | 38152 ft | 438 kts | 17° |
| 2026-04-25 18:56 | 48.26951 | 5.44443 | 38149 ft | 439 kts | 17° |
| 2026-04-25 18:56 | 48.32695 | 5.47560 | 38153 ft | 439 kts | 17° |
| 2026-04-25 18:57 | 48.38435 | 5.50681 | 38154 ft | 438 kts | 17° |
| 2026-04-25 18:57 | 48.44145 | 5.53793 | 38157 ft | 438 kts | 17° |
| 2026-04-25 18:58 | 48.49885 | 5.56928 | 38154 ft | 438 kts | 17° |
| 2026-04-25 18:58 | 48.58466 | 5.61629 | 38158 ft | 438 kts | 17° |
| 2026-04-25 18:59 | 48.69930 | 5.67937 | 38157 ft | 437 kts | 17° |
| 2026-04-25 19:00 | 48.78474 | 5.72658 | 38153 ft | 437 kts | 17° |
| 2026-04-25 19:01 | 48.87054 | 5.77417 | 38156 ft | 436 kts | 17° |
| 2026-04-25 19:01 | 48.92763 | 5.80592 | 38160 ft | 436 kts | 17° |
| 2026-04-25 19:02 | 49.01281 | 5.85345 | 38155 ft | 436 kts | 17° |
| 2026-04-25 19:03 | 49.07957 | 5.89082 | 38146 ft | 437 kts | 17° |
| 2026-04-25 19:03 | 49.15567 | 5.93355 | 38147 ft | 437 kts | 17° |
| 2026-04-25 19:04 | 49.24095 | 5.98160 | 38151 ft | 437 kts | 17° |
| 2026-04-25 19:05 | 49.35419 | 6.04574 | 38144 ft | 415 kts | 17° |
| 2026-04-25 19:05 | 49.38091 | 6.06094 | 38122 ft | 403 kts | 17° |
| 2026-04-25 19:06 | 49.40673 | 6.07561 | 38147 ft | 389 kts | 16° |
| 2026-04-25 19:06 | 49.48203 | 6.11376 | 38174 ft | 382 kts | 5° |